createdAt,value
2023-06-10T00:00:29.364Z,100734.84
2023-06-10T00:03:53.414Z,100736.84
2023-06-10T00:06:56.470Z,100734.38
2023-06-10T00:09:59.532Z,100732.84
2023-06-10T00:13:03.818Z,100734.81
2023-06-10T00:16:08.819Z,100721.63
2023-06-10T00:19:15.427Z,100732.81
2023-06-10T00:22:18.661Z,100724.97
2023-06-10T00:25:21.202Z,100732.59
2023-06-10T00:28:23.947Z,100734.78
2023-06-10T00:31:27.864Z,100730.44
2023-06-10T00:34:33.574Z,100734.00
2023-06-10T00:37:38.671Z,100727.34
2023-06-10T00:40:43.194Z,100737.09
2023-06-10T00:43:45.809Z,100729.25
2023-06-10T00:46:51.238Z,100728.75
2023-06-10T00:49:54.068Z,100735.06
2023-06-10T00:52:57.532Z,100734.31
2023-06-10T00:56:00.840Z,100735.44
2023-06-10T00:59:05.545Z,100736.78
2023-06-10T01:02:08.801Z,100731.56
2023-06-10T01:05:14.864Z,100738.88
2023-06-10T01:08:30.762Z,100737.31
2023-06-10T01:11:44.422Z,100735.84
2023-06-10T01:14:47.216Z,100736.41
2023-06-10T01:17:56.688Z,100749.13
2023-06-10T01:20:59.450Z,100737.75
2023-06-10T01:24:02.676Z,100743.13
2023-06-10T01:27:10.115Z,100740.72
2023-06-10T01:30:17.140Z,100749.75
2023-06-10T01:33:28.166Z,100748.25
2023-06-10T01:36:33.687Z,100751.16
2023-06-10T01:39:40.332Z,100752.03
2023-06-10T01:42:45.819Z,100757.66
2023-06-10T01:45:52.551Z,100756.00
2023-06-10T01:48:55.482Z,100749.69
2023-06-10T01:51:58.458Z,100757.75
2023-06-10T01:55:01.800Z,100750.63
2023-06-10T01:58:04.401Z,100746.44
2023-06-10T02:01:08.629Z,100757.97
2023-06-10T02:04:13.490Z,100761.38
2023-06-10T02:07:16.584Z,100764.97
2023-06-10T02:10:21.929Z,100769.75
2023-06-10T02:13:24.683Z,100779.81
2023-06-10T02:16:33.475Z,100775.44
2023-06-10T02:19:37.929Z,100777.91
2023-06-10T02:22:40.434Z,100759.06
2023-06-10T02:25:44.464Z,100772.94
2023-06-10T02:28:46.924Z,100765.50
2023-06-10T02:31:51.326Z,100782.59
2023-06-10T02:34:54.560Z,100778.22
2023-06-10T02:37:59.853Z,100787.06
2023-06-10T02:41:02.383Z,100783.50
2023-06-10T02:44:05.341Z,100799.47
2023-06-10T02:47:08.319Z,100786.97
2023-06-10T02:50:13.425Z,100801.25
2023-06-10T02:53:27.012Z,100781.97
2023-06-10T02:56:37.738Z,100793.41
2023-06-10T02:59:44.024Z,100809.28
2023-06-10T03:02:47.203Z,100805.66
2023-06-10T03:05:50.750Z,100798.53
2023-06-10T03:08:55.726Z,100811.03
2023-06-10T03:11:58.239Z,100807.50
2023-06-10T03:15:01.805Z,100805.75
2023-06-10T03:18:08.235Z,100803.13
2023-06-10T03:21:12.510Z,100806.97
2023-06-10T03:24:16.514Z,100785.75
2023-06-10T03:27:20.829Z,100806.75
2023-06-10T03:30:29.015Z,100803.19
2023-06-10T03:33:32.610Z,100815.63
2023-06-10T03:36:35.127Z,100810.25
2023-06-10T03:39:38.687Z,100817.22
2023-06-10T03:42:45.467Z,100817.44
2023-06-10T03:45:52.545Z,100810.16
2023-06-10T03:48:55.616Z,100815.53
2023-06-10T03:51:58.582Z,100819.22
2023-06-10T03:55:01.669Z,100828.75
2023-06-10T03:58:04.561Z,100820.69
2023-06-10T04:01:08.599Z,100826.06
2023-06-10T04:04:17.871Z,100835.59
2023-06-10T04:07:21.725Z,100830.16
2023-06-10T04:10:24.597Z,100831.72
2023-06-10T04:13:27.557Z,100837.81
2023-06-10T04:16:35.251Z,100830.78
2023-06-10T04:19:38.566Z,100841.38
2023-06-10T04:22:41.713Z,100823.28
2023-06-10T04:25:44.408Z,100832.09
2023-06-10T04:28:48.248Z,100833.66
2023-06-10T04:31:51.982Z,100819.41
2023-06-10T04:34:55.033Z,100835.06
2023-06-10T04:37:57.718Z,100827.00
2023-06-10T04:41:01.032Z,100831.50
2023-06-10T04:44:06.419Z,100827.78
2023-06-10T04:47:10.323Z,100834.56
2023-06-10T04:50:13.336Z,100847.84
2023-06-10T04:53:16.447Z,100835.09
2023-06-10T04:56:23.362Z,100843.03
2023-06-10T04:59:26.385Z,100843.53
2023-06-10T05:02:28.828Z,100847.75
2023-06-10T05:05:31.625Z,100845.09
2023-06-10T05:08:34.950Z,100850.44
2023-06-10T05:11:37.873Z,100852.94
2023-06-10T05:14:40.409Z,100858.31
2023-06-10T05:17:43.473Z,100872.50
2023-06-10T05:20:45.865Z,100858.84
2023-06-10T05:23:49.017Z,100862.31
2023-06-10T05:26:51.644Z,100866.25
2023-06-10T05:29:54.577Z,100866.84
2023-06-10T05:32:57.843Z,100865.78
2023-06-10T05:36:00.992Z,100858.41
2023-06-10T05:39:04.309Z,100865.41
2023-06-10T05:42:08.370Z,100860.72
2023-06-10T05:45:13.042Z,100874.09
2023-06-10T05:48:15.853Z,100866.75
2023-06-10T05:51:18.347Z,100868.91
2023-06-10T05:54:21.202Z,100864.28
2023-06-10T05:57:23.528Z,100861.19
2023-06-10T06:00:26.527Z,100869.06
2023-06-10T06:03:30.092Z,100868.34
2023-06-10T06:06:33.090Z,100871.09
2023-06-10T06:09:35.805Z,100871.69
2023-06-10T06:12:38.860Z,100879.47
2023-06-10T06:15:41.352Z,100870.28
2023-06-10T06:18:44.471Z,100879.47
2023-06-10T06:21:46.917Z,100881.22
2023-06-10T06:24:51.039Z,100872.38
2023-06-10T06:27:53.585Z,100880.75
2023-06-10T06:30:59.531Z,100877.41
2023-06-10T06:34:02.009Z,100873.38
2023-06-10T06:37:05.093Z,100868.94
2023-06-10T06:40:10.526Z,100881.72
2023-06-10T06:43:13.444Z,100861.47
2023-06-10T06:46:26.486Z,100873.72
2023-06-10T06:49:36.992Z,100878.88
2023-06-10T06:52:39.497Z,100879.03
2023-06-10T06:55:42.535Z,100878.09
2023-06-10T06:58:45.797Z,100873.31
2023-06-10T07:01:48.914Z,100879.22
2023-06-10T07:04:51.531Z,100884.63
2023-06-10T07:07:56.425Z,100887.50
2023-06-10T07:10:58.941Z,100891.09
2023-06-10T07:14:02.538Z,100889.69
2023-06-10T07:17:05.179Z,100888.22
2023-06-10T07:20:08.667Z,100893.03
2023-06-10T07:23:11.227Z,100895.47
2023-06-10T07:26:14.779Z,100900.22
2023-06-10T07:29:17.412Z,100903.13
2023-06-10T07:32:22.047Z,100904.63
2023-06-10T07:35:26.381Z,100901.34
2023-06-10T07:38:29.196Z,100902.75
2023-06-10T07:41:31.638Z,100899.25
2023-06-10T07:44:34.698Z,100907.69
2023-06-10T07:47:38.234Z,100897.75
2023-06-10T07:50:41.703Z,100906.97
2023-06-10T07:53:44.546Z,100902.47
2023-06-10T07:56:47.629Z,100904.91
2023-06-10T07:59:50.384Z,100906.53
2023-06-10T08:02:53.433Z,100901.44
2023-06-10T08:05:56.058Z,100913.47
2023-06-10T08:08:59.061Z,100902.75
2023-06-10T08:12:01.924Z,100910.50
2023-06-10T08:15:06.425Z,100901.91
2023-06-10T08:18:09.111Z,100898.03
2023-06-10T08:21:12.138Z,100909.28
2023-06-10T08:24:16.849Z,100908.59
2023-06-10T08:27:19.750Z,100901.50
2023-06-10T08:30:22.177Z,100901.91
2023-06-10T08:33:25.117Z,100909.78
2023-06-10T08:36:28.526Z,100908.22
2023-06-10T08:39:34.113Z,100903.53
2023-06-10T08:42:42.199Z,100896.56
2023-06-10T08:45:55.238Z,100901.94
2023-06-10T08:49:05.277Z,100915.69
2023-06-10T08:52:08.792Z,100903.47
2023-06-10T08:55:28.881Z,100904.28
2023-06-10T08:58:42.950Z,100899.50
2023-06-10T09:01:46.177Z,100899.13
2023-06-10T09:04:49.914Z,100899.00
2023-06-10T09:07:55.234Z,100898.06
2023-06-10T09:10:58.823Z,100903.38
2023-06-10T09:14:01.281Z,100904.53
2023-06-10T09:17:05.454Z,100904.72
2023-06-10T09:20:11.170Z,100902.53
2023-06-10T09:23:14.536Z,100902.66
2023-06-10T09:26:18.563Z,100894.34
2023-06-10T09:29:22.481Z,100900.28
2023-06-10T09:32:25.394Z,100900.69
2023-06-10T09:35:29.351Z,100902.56
2023-06-10T09:38:35.674Z,100896.13
2023-06-10T09:41:42.815Z,100892.66
2023-06-10T09:44:54.640Z,100890.75
2023-06-10T09:47:57.477Z,100887.44
2023-06-10T09:51:00.574Z,100891.44
2023-06-10T09:54:08.454Z,100893.22
2023-06-10T09:57:11.658Z,100888.06
2023-06-10T10:00:15.595Z,100884.09
2023-06-10T10:03:24.258Z,100898.41
2023-06-10T10:06:28.112Z,100886.19
2023-06-10T10:09:30.686Z,100892.69
2023-06-10T10:12:33.654Z,100889.94
2023-06-10T10:15:38.684Z,100891.91
2023-06-10T10:18:56.047Z,100886.66
2023-06-10T10:22:12.995Z,100901.25
2023-06-10T10:25:18.693Z,100893.22
2023-06-10T10:28:23.562Z,100893.16
2023-06-10T10:31:29.015Z,100892.72
2023-06-10T10:34:50.919Z,100901.56
2023-06-10T10:37:54.870Z,100892.47
2023-06-10T10:41:01.011Z,100889.34
2023-06-10T10:44:06.915Z,100879.44
2023-06-10T10:47:10.770Z,100894.53
2023-06-10T10:50:21.306Z,100899.09
2023-06-10T10:53:27.165Z,100883.25
2023-06-10T10:56:31.907Z,100884.94
2023-06-10T10:59:50.359Z,100883.34
2023-06-10T11:02:57.245Z,100890.94
2023-06-10T11:06:02.134Z,100890.63
2023-06-10T11:09:31.350Z,100892.00
2023-06-10T11:12:54.569Z,100885.53
2023-06-10T11:16:00.707Z,100881.47
2023-06-10T11:19:03.500Z,100891.31
2023-06-10T11:22:11.292Z,100878.28
2023-06-10T11:25:16.964Z,100883.84
2023-06-10T11:28:20.888Z,100880.59
2023-06-10T11:31:27.675Z,100875.59
2023-06-10T11:34:32.397Z,100869.75
2023-06-10T11:37:38.050Z,100869.66
2023-06-10T11:40:41.678Z,100868.81
2023-06-10T11:43:45.740Z,100856.63
2023-06-10T11:46:52.832Z,100865.53
2023-06-10T11:49:59.055Z,100861.50
2023-06-10T11:53:05.044Z,100854.53
2023-06-10T11:56:07.980Z,100864.06
2023-06-10T11:59:11.216Z,100860.00
2023-06-10T12:02:20.660Z,100865.22
2023-06-10T12:05:23.891Z,100858.66
2023-06-10T12:08:27.243Z,100858.84
2023-06-10T12:11:30.877Z,100852.81
2023-06-10T12:14:56.607Z,100852.22
2023-06-10T12:18:00.122Z,100852.88
2023-06-10T12:21:16.349Z,100854.66
2023-06-10T12:24:27.012Z,100859.69
2023-06-10T12:27:31.119Z,100853.34
2023-06-10T12:30:35.158Z,100849.28
2023-06-10T12:33:38.108Z,100862.66
2023-06-10T12:37:00.444Z,100851.16
2023-06-10T12:40:04.447Z,100833.81
2023-06-10T12:43:08.783Z,100832.97
2023-06-10T12:46:15.913Z,100843.81
2023-06-10T12:49:22.196Z,100844.81
2023-06-10T12:52:28.887Z,100843.94
2023-06-10T12:55:33.664Z,100834.84
2023-06-10T12:58:36.287Z,100827.97
2023-06-10T13:01:52.620Z,100842.16
2023-06-10T13:05:05.386Z,100843.34
2023-06-10T13:08:11.422Z,100851.88
2023-06-10T13:11:14.980Z,100838.56
2023-06-10T13:14:18.275Z,100833.78
2023-06-10T13:17:24.050Z,100821.06
2023-06-10T13:20:48.663Z,100810.03
2023-06-10T13:23:52.478Z,100826.59
2023-06-10T13:26:58.582Z,100813.25
2023-06-10T13:30:01.425Z,100817.88
2023-06-10T13:33:04.570Z,100821.25
2023-06-10T13:36:07.590Z,100814.75
2023-06-10T13:39:15.217Z,100813.25
2023-06-10T13:43:18.510Z,100802.94
2023-06-10T13:46:17.732Z,100807.41
2023-06-10T13:49:23.844Z,100815.91
2023-06-10T13:52:30.016Z,100808.91
2023-06-10T13:55:39.128Z,100807.88
2023-06-10T13:59:17.557Z,100816.16
2023-06-10T14:02:28.802Z,100817.38
2023-06-10T14:05:40.306Z,100809.78
2023-06-10T14:08:42.796Z,100819.88
2023-06-10T14:11:49.287Z,100808.78
2023-06-10T14:15:04.268Z,100798.06
2023-06-10T14:18:27.534Z,100809.91
2023-06-10T14:22:47.786Z,100814.13
2023-06-10T14:25:51.078Z,100820.88
2023-06-10T14:28:53.729Z,100822.25
2023-06-10T14:31:57.720Z,100819.94
2023-06-10T14:35:00.199Z,100804.56
2023-06-10T14:38:04.652Z,100814.50
2023-06-10T14:41:08.709Z,100809.28
2023-06-10T14:44:14.378Z,100806.69
2023-06-10T14:47:26.012Z,100802.09
2023-06-10T14:50:33.694Z,100804.13
2023-06-10T14:53:36.344Z,100812.56
2023-06-10T14:56:39.252Z,100809.09
2023-06-10T14:59:41.811Z,100815.06
2023-06-10T15:03:13.149Z,100806.63
2023-06-10T15:06:29.963Z,100803.72
2023-06-10T15:09:33.290Z,100805.81
2023-06-10T15:12:42.059Z,100789.97
2023-06-10T15:15:54.231Z,100816.84
2023-06-10T15:18:59.991Z,100802.69
2023-06-10T15:22:03.417Z,100811.00
2023-06-10T15:28:21.433Z,100815.88
2023-06-10T15:31:26.975Z,100804.28
2023-06-10T15:34:29.869Z,100815.00
2023-06-10T15:37:32.528Z,100812.38
2023-06-10T15:40:36.444Z,100820.50
2023-06-10T15:43:39.418Z,100827.53
2023-06-10T15:46:43.699Z,100829.13
2023-06-10T15:50:07.683Z,100831.25
2023-06-10T15:53:10.988Z,100823.53
2023-06-10T15:56:14.062Z,100823.44
2023-06-10T15:59:17.281Z,100833.69
2023-06-10T16:02:20.058Z,100829.13
2023-06-10T16:05:30.534Z,100829.78
2023-06-10T16:08:35.955Z,100839.41
2023-06-10T16:11:38.823Z,100838.50
2023-06-10T16:14:41.404Z,100841.34
2023-06-10T16:17:44.556Z,100833.22
2023-06-10T16:20:47.258Z,100841.22
2023-06-10T16:23:58.710Z,100846.75
2023-06-10T16:27:04.469Z,100851.00
2023-06-10T16:30:08.206Z,100851.88
2023-06-10T16:33:10.867Z,100859.28
2023-06-10T16:36:14.452Z,100859.94
2023-06-10T16:39:17.094Z,100863.38
2023-06-10T16:42:20.045Z,100855.09
2023-06-10T16:45:35.489Z,100855.69
2023-06-10T16:48:38.777Z,100869.41
2023-06-10T16:51:46.824Z,100863.84
2023-06-10T16:54:53.055Z,100866.41
2023-06-10T16:58:06.554Z,100870.03
2023-06-10T17:01:10.358Z,100888.22
2023-06-10T17:04:13.700Z,100879.53
2023-06-10T17:07:18.133Z,100883.78
2023-06-10T17:10:23.749Z,100892.66
2023-06-10T17:13:26.759Z,100896.16
2023-06-10T17:16:31.258Z,100890.63
2023-06-10T17:19:35.319Z,100896.41
2023-06-10T17:22:40.674Z,100898.72
2023-06-10T17:25:43.704Z,100902.56
2023-06-10T17:28:46.680Z,100902.97
2023-06-10T17:31:50.174Z,100913.19
2023-06-10T17:34:53.796Z,100910.81
2023-06-10T17:37:58.741Z,100917.94
2023-06-10T17:41:02.340Z,100918.66
2023-06-10T17:44:06.242Z,100919.94
2023-06-10T17:47:20.521Z,100920.91
2023-06-10T17:50:28.169Z,100917.50
2023-06-10T17:53:31.032Z,100929.22
2023-06-10T17:56:36.723Z,100932.63
2023-06-10T17:59:39.407Z,100936.91
2023-06-10T18:02:42.400Z,100942.34
2023-06-10T18:05:45.537Z,100942.28
2023-06-10T18:08:48.334Z,100943.19
2023-06-10T18:11:51.123Z,100943.34
2023-06-10T18:15:00.067Z,100947.38
2023-06-10T18:18:03.916Z,100960.53
2023-06-10T18:21:07.787Z,100950.00
2023-06-10T18:24:11.646Z,100956.84
2023-06-10T18:27:17.126Z,100978.34
2023-06-10T18:30:49.683Z,100967.13
2023-06-10T18:34:18.800Z,100979.88
2023-06-10T18:37:51.676Z,100977.91
2023-06-10T18:41:14.371Z,100981.34
2023-06-10T18:44:24.629Z,100988.31
2023-06-10T18:47:28.003Z,100990.38
2023-06-10T18:50:38.299Z,101001.59
2023-06-10T18:53:48.124Z,101001.13
2023-06-10T18:56:50.835Z,101008.16
2023-06-10T18:59:54.103Z,101008.25
2023-06-10T19:02:59.668Z,101013.81
2023-06-10T19:06:12.153Z,101027.25
2023-06-10T19:10:36.623Z,101032.53
2023-06-10T19:13:39.624Z,101025.56
2023-06-10T19:16:45.258Z,101042.13
2023-06-10T19:19:48.381Z,101045.31
2023-06-10T19:22:50.901Z,101058.66
2023-06-10T19:25:53.961Z,101057.78
2023-06-10T19:28:56.843Z,101061.19
2023-06-10T19:32:01.177Z,101046.34
2023-06-10T19:35:05.033Z,101054.56
2023-06-10T19:38:08.137Z,101069.84
2023-06-10T19:41:10.816Z,101068.72
2023-06-10T19:44:13.773Z,101058.97
2023-06-10T19:47:16.433Z,101073.44
2023-06-10T19:50:22.708Z,101079.34
2023-06-10T19:53:33.427Z,101084.19
2023-06-10T19:56:38.539Z,101084.97
2023-06-10T19:59:41.807Z,101085.16
2023-06-10T20:02:44.741Z,101090.69
2023-06-10T20:05:47.441Z,101097.31
2023-06-10T20:08:51.130Z,101095.56
2023-06-10T20:11:53.801Z,101095.22
2023-06-10T20:14:56.625Z,101100.88
2023-06-10T20:17:59.341Z,101096.25
2023-06-10T20:21:02.982Z,101096.03
2023-06-10T20:24:07.490Z,101100.94
2023-06-10T20:27:11.514Z,101107.06
2023-06-10T20:30:15.780Z,101108.50
2023-06-10T20:33:19.007Z,101099.88
2023-06-10T20:36:22.897Z,101103.03
2023-06-10T20:39:26.606Z,101113.47
2023-06-10T20:42:29.474Z,101115.44
2023-06-10T20:45:32.322Z,101099.59
2023-06-10T20:48:34.885Z,101117.66
2023-06-10T20:51:41.012Z,101105.19
2023-06-10T20:54:43.621Z,101112.72
2023-06-10T20:57:46.650Z,101108.25
2023-06-10T21:00:49.452Z,101116.38
2023-06-10T21:03:53.247Z,101115.63
2023-06-10T21:06:55.934Z,101112.34
2023-06-10T21:09:58.795Z,101114.28
2023-06-10T21:13:01.421Z,101127.44
2023-06-10T21:16:04.604Z,101120.75
2023-06-10T21:19:07.307Z,101130.19
2023-06-10T21:22:10.180Z,101141.28
2023-06-10T21:25:12.893Z,101132.66
2023-06-10T21:28:16.349Z,101140.06
2023-06-10T21:31:19.800Z,101138.16
2023-06-10T21:34:22.810Z,101145.28
2023-06-10T21:37:25.372Z,101133.22
2023-06-10T21:40:28.327Z,101149.59
2023-06-10T21:43:30.921Z,101158.31
2023-06-10T21:46:34.653Z,101163.88
2023-06-10T21:49:37.192Z,101161.47
2023-06-10T21:52:40.169Z,101162.50
2023-06-10T21:55:42.750Z,101167.06
2023-06-10T21:58:49.558Z,101163.69
2023-06-10T22:01:52.318Z,101162.25
2023-06-10T22:04:58.429Z,101160.03
2023-06-10T22:08:01.731Z,101162.09
2023-06-10T22:11:04.696Z,101175.91
2023-06-10T22:14:07.802Z,101172.50
2023-06-10T22:17:10.853Z,101174.44
2023-06-10T22:20:13.805Z,101160.56
2023-06-10T22:23:23.734Z,101183.09
2023-06-10T22:26:36.850Z,101176.06
2023-06-10T22:29:50.004Z,101175.56
2023-06-10T22:32:52.673Z,101187.53
2023-06-10T22:35:55.640Z,101189.84
2023-06-10T22:38:58.177Z,101181.97
2023-06-10T22:42:00.928Z,101183.78
2023-06-10T22:45:04.510Z,101184.75
2023-06-10T22:48:07.463Z,101180.44
2023-06-10T22:51:10.086Z,101184.31
2023-06-10T22:54:15.403Z,101181.81
2023-06-10T22:57:18.136Z,101183.94
2023-06-10T23:00:21.250Z,101193.81
2023-06-10T23:03:23.810Z,101200.44
2023-06-10T23:06:26.650Z,101198.97
2023-06-10T23:09:29.309Z,101190.22
2023-06-10T23:12:32.499Z,101194.88
2023-06-10T23:15:35.175Z,101190.47
2023-06-10T23:18:41.439Z,101190.63
2023-06-10T23:21:54.583Z,101190.81
2023-06-10T23:24:58.289Z,101192.03
2023-06-10T23:28:00.907Z,101185.84
2023-06-10T23:31:03.885Z,101182.72
2023-06-10T23:34:06.566Z,101189.19
2023-06-10T23:37:12.196Z,101187.47
2023-06-10T23:40:16.582Z,101201.19
2023-06-10T23:43:19.502Z,101200.44
2023-06-10T23:46:22.169Z,101200.53
2023-06-10T23:49:25.037Z,101201.56
2023-06-10T23:52:27.457Z,101194.56
2023-06-10T23:55:30.541Z,101203.44
2023-06-10T23:58:33.243Z,101203.56
